Upperglade, West Virginia
Current Conditions -  °F | °C
As of 4:35 AM on Thursday 18 Dec 2014 (Local Time) from KLWB Reporting Station
Broken Clouds Broken Clouds  
Wind Chill: 29°   Ceiling: 2100
Heat Index: 29°   Visibility: 10mi
Dew Point: 22°   Wind: 3mph
Humidity: 73%   Direction: 290°WNW
Pressure: 30.11"   Gusts: NA
Location:  38.41°N, 80.51°W
Report Text: KLWB 180935Z AUTO 29003KT 10SM BKN021 M02/M06 A3011 RMK AO2 T10161058
Loading
Personal Weather Stations






























Interactive Weather Map New forecast layout! Learn more

10-Day Weather Forecast

Advertisements
Track Severe Weather on mobile